createdAt,value
2023-05-05T00:01:43.502Z,96439.09
2023-05-05T00:04:17.700Z,96436.81
2023-05-05T00:06:50.528Z,96435.69
2023-05-05T00:09:23.502Z,96421.78
2023-05-05T00:11:56.641Z,96422.56
2023-05-05T00:14:30.805Z,96426.38
2023-05-05T00:17:04.259Z,96417.09
2023-05-05T00:19:37.048Z,96419.03
2023-05-05T00:22:09.788Z,96415.91
2023-05-05T00:24:42.961Z,96420.88
2023-05-05T00:27:15.777Z,96423.91
2023-05-05T00:29:49.816Z,96419.66
2023-05-05T00:32:22.590Z,96414.19
2023-05-05T00:34:55.444Z,96414.91
2023-05-05T00:37:28.353Z,96405.59
2023-05-05T00:40:01.193Z,96416.75
2023-05-05T00:42:39.411Z,96418.25
2023-05-05T00:45:14.728Z,96424.00
2023-05-05T00:47:48.990Z,96417.38
2023-05-05T00:50:23.967Z,96417.75
2023-05-05T00:52:58.169Z,96419.69
2023-05-05T00:55:31.713Z,96420.81
2023-05-05T00:58:05.445Z,96419.25
2023-05-05T01:00:39.949Z,96415.78
2023-05-05T01:03:15.447Z,96418.47
2023-05-05T01:05:53.194Z,96417.69
2023-05-05T01:08:33.655Z,96415.34
2023-05-05T01:11:12.732Z,96414.13
2023-05-05T01:13:49.716Z,96416.81
2023-05-05T01:16:26.330Z,96413.34
2023-05-05T01:19:02.121Z,96416.44
2023-05-05T01:21:37.241Z,96416.44
2023-05-05T01:24:37.331Z,96415.22
2023-05-05T01:27:28.443Z,96422.53
2023-05-05T01:30:11.798Z,96412.88
2023-05-05T01:32:49.085Z,96407.84
2023-05-05T01:35:27.056Z,96414.75
2023-05-05T01:38:01.810Z,96413.16
2023-05-05T01:40:37.896Z,96418.56
2023-05-05T01:43:11.616Z,96417.78
2023-05-05T01:45:46.305Z,96414.31
2023-05-05T01:48:21.643Z,96412.75
2023-05-05T01:50:54.537Z,96417.34
2023-05-05T01:53:28.444Z,96412.31
2023-05-05T01:56:03.119Z,96419.59
2023-05-05T01:58:36.261Z,96418.03
2023-05-05T02:01:10.486Z,96411.09
2023-05-05T02:03:47.247Z,96417.66
2023-05-05T02:06:20.705Z,96422.59
2023-05-05T02:08:54.159Z,96428.78
2023-05-05T02:11:28.356Z,96425.63
2023-05-05T02:14:02.352Z,96431.81
2023-05-05T02:16:35.362Z,96431.81
2023-05-05T02:19:09.906Z,96418.69
2023-05-05T02:21:43.274Z,96420.25
2023-05-05T02:24:16.431Z,96415.56
2023-05-05T02:26:51.409Z,96409.41
2023-05-05T02:29:29.650Z,96412.09
2023-05-05T02:32:04.926Z,96403.97
2023-05-05T02:34:40.988Z,96412.03
2023-05-05T02:37:15.444Z,96409.69
2023-05-05T02:39:51.657Z,96412.75
2023-05-05T02:42:25.181Z,96413.09
2023-05-05T02:44:59.895Z,96414.66
2023-05-05T02:47:36.451Z,96408.03
2023-05-05T02:50:12.352Z,96413.81
2023-05-05T02:52:45.961Z,96412.25
2023-05-05T02:55:18.706Z,96408.78
2023-05-05T02:57:54.956Z,96408.34
2023-05-05T03:00:33.813Z,96406.78
2023-05-05T03:03:14.130Z,96403.66
2023-05-05T03:05:52.474Z,96400.19
2023-05-05T03:08:29.329Z,96402.88
2023-05-05T03:11:06.030Z,96407.13
2023-05-05T03:13:42.969Z,96400.19
2023-05-05T03:16:17.688Z,96404.44
2023-05-05T03:18:53.372Z,96402.19
2023-05-05T03:21:27.717Z,96401.13
2023-05-05T03:24:01.172Z,96397.72
2023-05-05T03:26:34.228Z,96400.91
2023-05-05T03:29:07.001Z,96398.72
2023-05-05T03:31:40.100Z,96394.53
2023-05-05T03:34:12.917Z,96404.66
2023-05-05T03:36:47.001Z,96394.72
2023-05-05T03:39:19.931Z,96399.47
2023-05-05T03:41:52.738Z,96400.75
2023-05-05T03:44:25.469Z,96402.00
2023-05-05T03:46:58.116Z,96407.47
2023-05-05T03:49:30.880Z,96409.50
2023-05-05T03:52:05.026Z,96404.19
2023-05-05T03:54:38.048Z,96405.03
2023-05-05T03:57:11.896Z,96407.81
2023-05-05T03:59:44.651Z,96417.94
2023-05-05T04:02:18.782Z,96410.28
2023-05-05T04:04:51.879Z,96407.63
2023-05-05T04:07:26.231Z,96416.94
2023-05-05T04:09:58.990Z,96410.81
2023-05-05T04:12:31.750Z,96411.25
2023-05-05T04:15:04.686Z,96417.03
2023-05-05T04:17:37.516Z,96416.69
2023-05-05T04:20:11.229Z,96419.38
2023-05-05T04:22:45.990Z,96423.22
2023-05-05T04:25:18.852Z,96424.00
2023-05-05T04:27:51.540Z,96413.56
2023-05-05T04:30:24.316Z,96424.00
2023-05-05T04:32:57.082Z,96433.22
2023-05-05T04:35:29.848Z,96425.13
2023-05-05T04:38:03.963Z,96435.56
2023-05-05T04:40:39.462Z,96431.38
2023-05-05T04:43:12.234Z,96430.63
2023-05-05T04:45:52.917Z,96436.09
2023-05-05T04:48:25.667Z,96441.56
2023-05-05T04:50:58.368Z,96449.78
2023-05-05T04:53:32.503Z,96442.13
2023-05-05T04:56:05.621Z,96447.19
2023-05-05T04:58:38.647Z,96443.81
2023-05-05T05:01:11.288Z,96449.28
2023-05-05T05:03:44.097Z,96447.06
2023-05-05T05:06:17.041Z,96440.97
2023-05-05T05:08:51.089Z,96442.25
2023-05-05T05:11:23.852Z,96453.16
2023-05-05T05:13:56.538Z,96446.28
2023-05-05T05:16:29.308Z,96450.25
2023-05-05T05:19:02.128Z,96440.72
2023-05-05T05:21:34.857Z,96447.00
2023-05-05T05:24:09.224Z,96443.63
2023-05-05T05:26:41.979Z,96442.91
2023-05-05T05:29:14.990Z,96441.47
2023-05-05T05:31:48.064Z,96442.72
2023-05-05T05:34:21.028Z,96454.38
2023-05-05T05:36:53.811Z,96450.59
2023-05-05T05:39:28.326Z,96456.44
2023-05-05T05:42:01.112Z,96456.09
2023-05-05T05:44:33.939Z,96456.97
2023-05-05T05:47:06.805Z,96463.22
2023-05-05T05:49:40.334Z,96470.63
2023-05-05T05:52:13.194Z,96456.38
2023-05-05T05:54:47.302Z,96463.38
2023-05-05T05:57:22.262Z,96468.91
2023-05-05T05:59:55.186Z,96474.03
2023-05-05T06:02:27.985Z,96474.97
2023-05-05T06:05:00.768Z,96476.69
2023-05-05T06:07:33.564Z,96478.81
2023-05-05T06:10:25.617Z,96472.88
2023-05-05T06:13:00.118Z,96464.56
2023-05-05T06:15:32.862Z,96476.78
2023-05-05T06:18:05.917Z,96481.59
2023-05-05T06:20:38.613Z,96476.25
2023-05-05T06:23:11.377Z,96475.94
2023-05-05T06:25:45.795Z,96471.72
2023-05-05T06:28:18.791Z,96471.31
2023-05-05T06:30:51.793Z,96469.38
2023-05-05T06:33:24.607Z,96476.69
2023-05-05T06:35:57.334Z,96471.66
2023-05-05T06:38:34.018Z,96466.94
2023-05-05T06:41:08.160Z,96467.28
2023-05-05T06:43:44.377Z,96469.94
2023-05-05T06:46:17.440Z,96474.53
2023-05-05T06:48:50.249Z,96469.44
2023-05-05T06:51:23.045Z,96462.00
2023-05-05T06:53:58.361Z,96466.22
2023-05-05T06:56:33.000Z,96464.53
2023-05-05T06:59:05.755Z,96466.03
2023-05-05T07:01:38.487Z,96463.22
2023-05-05T07:04:11.388Z,96468.19
2023-05-05T07:06:44.105Z,96464.59
2023-05-05T07:09:17.632Z,96469.97
2023-05-05T07:11:51.816Z,96463.66
2023-05-05T07:14:24.729Z,96461.56
2023-05-05T07:16:57.714Z,96470.41
2023-05-05T07:19:30.716Z,96461.72
2023-05-05T07:22:03.465Z,96465.09
2023-05-05T07:24:36.198Z,96457.91
2023-05-05T07:27:10.732Z,96461.63
2023-05-05T07:29:43.450Z,96467.59
2023-05-05T07:32:16.333Z,96465.09
2023-05-05T07:34:49.141Z,96467.13
2023-05-05T07:37:21.991Z,96470.00
2023-05-05T07:39:55.112Z,96456.47
2023-05-05T07:42:29.131Z,96459.00
2023-05-05T07:45:01.815Z,96461.09
2023-05-05T07:47:34.697Z,96452.31
2023-05-05T07:50:08.709Z,96447.47
2023-05-05T07:52:46.738Z,96445.75
2023-05-05T07:55:22.655Z,96441.66
2023-05-05T07:57:56.791Z,96446.22
2023-05-05T08:00:29.633Z,96437.56
2023-05-05T08:03:02.502Z,96440.22
2023-05-05T08:05:35.403Z,96437.84
2023-05-05T08:08:08.384Z,96435.81
2023-05-05T08:10:41.620Z,96432.22
2023-05-05T08:13:16.017Z,96434.47
2023-05-05T08:15:48.916Z,96426.63
2023-05-05T08:18:21.682Z,96426.19
2023-05-05T08:20:54.877Z,96425.75
2023-05-05T08:23:27.549Z,96425.00
2023-05-05T08:26:00.478Z,96417.19
2023-05-05T08:28:36.399Z,96423.13
2023-05-05T08:31:10.835Z,96418.06
2023-05-05T08:33:43.496Z,96421.63
2023-05-05T08:36:16.264Z,96413.41
2023-05-05T08:38:48.994Z,96414.59
2023-05-05T08:41:21.877Z,96418.91
2023-05-05T08:43:57.107Z,96413.84
2023-05-05T08:46:31.191Z,96414.59
2023-05-05T08:49:06.599Z,96408.31
2023-05-05T08:51:43.017Z,96411.41
2023-05-05T08:54:17.700Z,96409.44
2023-05-05T08:56:51.741Z,96402.72
2023-05-05T08:59:28.504Z,96403.97
2023-05-05T09:02:02.119Z,96406.25
2023-05-05T09:04:35.626Z,96408.56
2023-05-05T09:07:08.885Z,96403.88
2023-05-05T09:09:41.677Z,96409.28
2023-05-05T09:12:15.795Z,96407.31
2023-05-05T09:14:50.019Z,96413.09
2023-05-05T09:17:26.262Z,96408.00
2023-05-05T09:20:04.284Z,96406.78
2023-05-05T09:22:38.690Z,96408.28
2023-05-05T09:25:12.236Z,96401.16
2023-05-05T09:27:46.612Z,96403.41
2023-05-05T09:30:25.739Z,96403.66
2023-05-05T09:32:58.955Z,96398.13
2023-05-05T09:35:48.884Z,96394.88
2023-05-05T09:38:22.534Z,96388.19
2023-05-05T09:40:55.789Z,96387.34
2023-05-05T09:43:28.588Z,96390.44
2023-05-05T09:46:08.878Z,96386.44
2023-05-05T09:48:41.738Z,96380.88
2023-05-05T09:51:14.532Z,96382.34
2023-05-05T09:53:47.297Z,96372.91
2023-05-05T09:56:20.764Z,96373.59
2023-05-05T09:59:08.768Z,96362.63
2023-05-05T10:01:43.884Z,96360.16
2023-05-05T10:04:27.096Z,96360.47
2023-05-05T10:07:00.046Z,96358.38
2023-05-05T10:09:32.866Z,96350.38
2023-05-05T10:12:06.043Z,96352.16
2023-05-05T10:14:39.383Z,96348.03
2023-05-05T10:17:15.180Z,96341.59
2023-05-05T10:19:48.130Z,96341.78
2023-05-05T10:22:24.004Z,96343.56
2023-05-05T10:24:58.735Z,96338.66
2023-05-05T10:27:35.607Z,96332.97
2023-05-05T10:30:09.223Z,96333.13
2023-05-05T10:35:22.743Z,96321.63
2023-05-05T10:37:55.721Z,96328.50
2023-05-05T10:40:28.677Z,96322.00
2023-05-05T10:43:01.644Z,96311.50
2023-05-05T10:45:34.624Z,96312.47
2023-05-05T10:48:11.686Z,96304.78
2023-05-05T10:50:49.166Z,96306.56
2023-05-05T10:53:24.759Z,96306.34
2023-05-05T10:56:04.292Z,96306.13
2023-05-05T10:58:51.095Z,96294.13
2023-05-05T11:01:32.677Z,96298.97
2023-05-05T11:04:19.037Z,96288.97
2023-05-05T11:07:14.312Z,96284.78
2023-05-05T11:09:56.953Z,96291.25
2023-05-05T11:12:29.987Z,96276.94
2023-05-05T11:15:21.299Z,96276.41
2023-05-05T11:17:54.356Z,96264.50
2023-05-05T11:20:43.640Z,96260.53
2023-05-05T11:23:23.989Z,96268.66
2023-05-05T11:25:57.748Z,96268.22
2023-05-05T11:28:31.700Z,96260.44
2023-05-05T11:31:17.656Z,96261.31
2023-05-05T11:33:50.608Z,96255.19
2023-05-05T11:36:39.428Z,96245.50
2023-05-05T11:39:22.226Z,96246.84
2023-05-05T11:42:10.519Z,96263.78
2023-05-05T11:44:43.890Z,96248.16
2023-05-05T11:47:27.374Z,96248.16
2023-05-05T11:50:00.589Z,96244.22
2023-05-05T11:52:34.616Z,96243.78
2023-05-05T11:55:09.894Z,96237.06
2023-05-05T11:57:44.769Z,96234.31
2023-05-05T12:00:17.861Z,96240.25
2023-05-05T12:02:57.054Z,96240.34
2023-05-05T12:05:29.990Z,96244.00
2023-05-05T12:08:02.853Z,96230.38
2023-05-05T12:10:37.051Z,96227.75
2023-05-05T12:13:18.759Z,96219.63
2023-05-05T12:15:52.154Z,96227.97
2023-05-05T12:18:24.935Z,96227.34
2023-05-05T12:20:57.651Z,96225.44
2023-05-05T12:23:30.885Z,96216.09
2023-05-05T12:26:05.760Z,96211.84
2023-05-05T12:28:45.421Z,96219.19
2023-05-05T12:31:18.200Z,96216.78
2023-05-05T12:33:51.576Z,96225.22
2023-05-05T12:36:24.398Z,96213.69
2023-05-05T12:38:57.226Z,96206.75
2023-05-05T12:41:31.407Z,96206.38
2023-05-05T12:44:04.564Z,96202.19
2023-05-05T12:46:46.375Z,96197.81
2023-05-05T12:49:19.102Z,96197.03
2023-05-05T12:51:55.857Z,96183.19
2023-05-05T12:54:30.089Z,96181.91
2023-05-05T12:57:12.102Z,96186.44
2023-05-05T12:59:45.113Z,96181.94
2023-05-05T13:02:18.521Z,96172.38
2023-05-05T13:04:52.171Z,96166.44
2023-05-05T13:07:25.018Z,96155.75
2023-05-05T13:10:07.547Z,96151.94
2023-05-05T13:12:41.952Z,96154.13
2023-05-05T13:15:14.897Z,96144.16
2023-05-05T13:17:47.728Z,96141.41
2023-05-05T13:20:20.474Z,96133.63
2023-05-05T13:22:53.276Z,96130.53
2023-05-05T13:25:26.149Z,96132.22
2023-05-05T13:28:00.268Z,96119.38
2023-05-05T13:30:32.985Z,96117.22
2023-05-05T13:33:05.927Z,96105.59
2023-05-05T13:35:38.616Z,96094.41
2023-05-05T13:38:11.393Z,96098.22
2023-05-05T13:40:44.087Z,96091.91
2023-05-05T13:43:18.268Z,96098.16
2023-05-05T13:45:50.965Z,96102.38
2023-05-05T13:48:23.791Z,96105.41
2023-05-05T13:50:56.938Z,96104.16
2023-05-05T13:53:29.699Z,96094.94
2023-05-05T13:56:03.668Z,96092.97
2023-05-05T13:58:38.088Z,96093.44
2023-05-05T14:01:11.513Z,96095.28
2023-05-05T14:03:44.281Z,96093.47
2023-05-05T14:06:17.373Z,96081.41
2023-05-05T14:08:50.104Z,96083.13
2023-05-05T14:11:22.921Z,96081.19
2023-05-05T14:13:57.084Z,96071.44
2023-05-05T14:16:29.803Z,96066.84
2023-05-05T14:19:02.869Z,96061.53
2023-05-05T14:21:35.896Z,96062.88
2023-05-05T14:24:08.835Z,96063.97
2023-05-05T14:26:41.929Z,96055.25
2023-05-05T14:29:16.218Z,96054.50
2023-05-05T14:31:48.944Z,96043.16
2023-05-05T14:34:21.660Z,96046.81
2023-05-05T14:36:54.367Z,96048.97
2023-05-05T14:39:27.451Z,96048.34
2023-05-05T14:42:00.167Z,96043.44
2023-05-05T14:44:34.334Z,96050.78
2023-05-05T14:47:07.056Z,96052.59
2023-05-05T14:49:41.714Z,96061.09
2023-05-05T14:52:14.432Z,96061.41
2023-05-05T14:54:47.504Z,96066.09
2023-05-05T14:57:20.250Z,96058.25
2023-05-05T14:59:54.348Z,96058.66
2023-05-05T15:02:27.197Z,96064.28
2023-05-05T15:05:00.101Z,96068.59
2023-05-05T15:07:32.817Z,96061.34
2023-05-05T15:10:05.830Z,96062.31
2023-05-05T15:12:39.012Z,96059.00
2023-05-05T15:15:13.377Z,96060.38
2023-05-05T15:17:46.181Z,96066.47
2023-05-05T15:20:19.350Z,96073.31
2023-05-05T15:22:52.056Z,96074.66
2023-05-05T15:25:24.897Z,96077.97
2023-05-05T15:27:58.834Z,96079.28
2023-05-05T15:30:33.476Z,96073.16
2023-05-05T15:33:06.392Z,96081.34
2023-05-05T15:35:39.456Z,96092.38
2023-05-05T15:38:12.177Z,96098.28
2023-05-05T15:40:47.203Z,96097.47
2023-05-05T15:43:21.621Z,96124.81
2023-05-05T15:45:56.237Z,96197.91
2023-05-05T15:48:29.109Z,96205.66
2023-05-05T15:51:01.859Z,96228.75
2023-05-05T15:53:34.614Z,96247.59
2023-05-05T15:56:07.936Z,96247.94
2023-05-05T15:58:40.724Z,96259.38
2023-05-05T16:01:14.998Z,96260.69
2023-05-05T16:03:49.686Z,96271.25
2023-05-05T16:06:24.762Z,96277.00
2023-05-05T16:09:02.541Z,96249.94
2023-05-05T16:11:45.806Z,96215.00
2023-05-05T16:14:18.447Z,96230.50
2023-05-05T16:16:52.645Z,96219.53
2023-05-05T16:19:29.245Z,96215.47
2023-05-05T16:22:03.666Z,96228.44
2023-05-05T16:24:36.797Z,96243.66
2023-05-05T16:27:12.784Z,96268.91
2023-05-05T16:29:45.669Z,96298.34
2023-05-05T16:32:27.610Z,96299.91
2023-05-05T16:35:02.515Z,96299.44
2023-05-05T16:37:39.911Z,96289.75
2023-05-05T16:40:13.491Z,96292.44
2023-05-05T16:42:46.578Z,96295.56
2023-05-05T16:45:19.697Z,96302.16
2023-05-05T16:47:55.425Z,96298.28
2023-05-05T16:50:28.368Z,96289.03
2023-05-05T16:53:01.579Z,96286.72
2023-05-05T16:55:34.555Z,96287.91
2023-05-05T16:58:07.450Z,96283.22
2023-05-05T17:00:40.317Z,96298.34
2023-05-05T17:03:14.443Z,96290.59
2023-05-05T17:05:50.028Z,96285.19
2023-05-05T17:08:23.466Z,96291.75
2023-05-05T17:10:56.244Z,96284.75
2023-05-05T17:13:29.473Z,96288.25
2023-05-05T17:16:02.291Z,96289.03
2023-05-05T17:18:37.270Z,96301.41
2023-05-05T17:21:10.083Z,96301.44
2023-05-05T17:23:42.904Z,96307.66
2023-05-05T17:26:15.821Z,96317.34
2023-05-05T17:28:48.561Z,96316.16
2023-05-05T17:31:21.942Z,96316.56
2023-05-05T17:33:56.493Z,96322.41
2023-05-05T17:36:29.249Z,96326.25
2023-05-05T17:39:02.058Z,96325.50
2023-05-05T17:41:34.956Z,96321.63
2023-05-05T17:44:07.719Z,96326.25
2023-05-05T17:46:40.493Z,96330.13
2023-05-05T17:49:14.926Z,96323.56
2023-05-05T17:51:47.574Z,96327.81
2023-05-05T17:54:20.327Z,96337.47
2023-05-05T17:56:53.270Z,96334.00
2023-05-05T17:59:26.163Z,96335.94
2023-05-05T18:01:59.050Z,96342.94
2023-05-05T18:04:33.597Z,96350.69
2023-05-05T18:07:06.745Z,96352.63
2023-05-05T18:09:39.794Z,96353.00
2023-05-05T18:12:12.648Z,96358.44
2023-05-05T18:14:45.388Z,96357.25
2023-05-05T18:17:18.139Z,96364.22
2023-05-05T18:19:52.423Z,96367.72
2023-05-05T18:22:25.325Z,96368.84
2023-05-05T18:24:59.249Z,96369.63
2023-05-05T18:27:32.889Z,96368.06
2023-05-05T18:30:06.275Z,96366.09
2023-05-05T18:32:39.375Z,96366.13
2023-05-05T18:35:13.657Z,96371.13
2023-05-05T18:37:46.299Z,96372.63
2023-05-05T18:40:19.112Z,96368.75
2023-05-05T18:42:52.092Z,96369.13
2023-05-05T18:45:25.080Z,96368.31
2023-05-05T18:47:57.879Z,96374.88
2023-05-05T18:50:33.448Z,96369.84
2023-05-05T18:53:06.125Z,96367.47
2023-05-05T18:55:38.859Z,96374.81
2023-05-05T18:58:11.647Z,96375.19
2023-05-05T19:00:44.400Z,96373.25
2023-05-05T19:03:17.129Z,96375.16
2023-05-05T19:05:51.572Z,96372.81
2023-05-05T19:08:24.310Z,96370.47
2023-05-05T19:10:57.139Z,96372.41
2023-05-05T19:13:29.859Z,96370.44
2023-05-05T19:16:02.677Z,96382.81
2023-05-05T19:18:35.525Z,96386.66
2023-05-05T19:21:09.677Z,96388.56
2023-05-05T19:23:42.400Z,96386.63
2023-05-05T19:26:15.311Z,96390.06
2023-05-05T19:28:48.022Z,96385.41
2023-05-05T19:31:21.892Z,96392.72
2023-05-05T19:33:54.698Z,96398.50
2023-05-05T19:36:29.095Z,96400.78
2023-05-05T19:39:02.306Z,96403.09
2023-05-05T19:41:35.670Z,96403.81
2023-05-05T19:44:08.349Z,96412.72
2023-05-05T19:46:41.264Z,96416.16
2023-05-05T19:49:13.960Z,96413.03
2023-05-05T19:51:49.860Z,96425.78
2023-05-05T19:54:24.460Z,96426.91
2023-05-05T19:56:58.143Z,96426.06
2023-05-05T19:59:30.914Z,96428.72
2023-05-05T20:02:03.728Z,96418.97
2023-05-05T20:04:36.478Z,96432.81
2023-05-05T20:07:11.063Z,96420.72
2023-05-05T20:09:43.848Z,96422.97
2023-05-05T20:12:17.681Z,96425.16
2023-05-05T20:14:50.635Z,96424.28
2023-05-05T20:17:23.824Z,96426.50
2023-05-05T20:19:57.683Z,96432.19
2023-05-05T20:22:31.897Z,96428.22
2023-05-05T20:25:04.797Z,96429.28
2023-05-05T20:27:38.993Z,96433.81
2023-05-05T20:30:12.394Z,96433.31
2023-05-05T20:32:45.296Z,96435.94
2023-05-05T20:35:18.071Z,96436.19
2023-05-05T20:37:52.380Z,96429.94
2023-05-05T20:40:25.041Z,96432.53
2023-05-05T20:42:58.290Z,96430.88
2023-05-05T20:45:31.812Z,96436.19
2023-05-05T20:48:05.631Z,96426.84
2023-05-05T20:50:38.655Z,96432.53
2023-05-05T20:53:13.889Z,96437.09
2023-05-05T20:55:46.957Z,96432.44
2023-05-05T20:58:19.612Z,96433.53
2023-05-05T21:00:52.419Z,96438.50
2023-05-05T21:03:25.246Z,96433.03
2023-05-05T21:05:58.108Z,96427.94
2023-05-05T21:08:32.392Z,96421.72
2023-05-05T21:11:09.342Z,96430.16
2023-05-05T21:13:42.062Z,96430.13
2023-05-05T21:16:15.028Z,96425.44
2023-05-05T21:18:47.842Z,96418.84
2023-05-05T21:21:20.632Z,96422.28
2023-05-05T21:23:55.337Z,96411.41
2023-05-05T21:26:28.125Z,96415.97
2023-05-05T21:29:00.823Z,96415.56
2023-05-05T21:31:33.667Z,96412.78
2023-05-05T21:34:06.669Z,96410.47
2023-05-05T21:36:39.496Z,96404.22
2023-05-05T21:39:13.604Z,96404.94
2023-05-05T21:41:46.297Z,96407.59
2023-05-05T21:44:20.514Z,96408.28
2023-05-05T21:46:53.631Z,96399.78
2023-05-05T21:49:26.545Z,96398.59
2023-05-05T21:51:59.412Z,96396.59
2023-05-05T21:54:33.531Z,96395.06
2023-05-05T21:57:06.396Z,96402.00
2023-05-05T21:59:39.225Z,96398.16
2023-05-05T22:02:12.015Z,96392.78
2023-05-05T22:04:48.529Z,96399.00
2023-05-05T22:07:21.266Z,96401.34
2023-05-05T22:09:55.559Z,96390.97
2023-05-05T22:12:28.460Z,96396.44
2023-05-05T22:15:01.602Z,96398.75
2023-05-05T22:17:34.377Z,96395.34
2023-05-05T22:20:09.165Z,96396.91
2023-05-05T22:22:42.141Z,96389.25
2023-05-05T22:25:16.333Z,96387.75
2023-05-05T22:27:49.144Z,96386.19
2023-05-05T22:30:22.130Z,96386.97
2023-05-05T22:32:55.099Z,96376.19
2023-05-05T22:35:28.368Z,96370.03
2023-05-05T22:38:01.550Z,96370.38
2023-05-05T22:40:35.962Z,96376.13
2023-05-05T22:43:08.681Z,96366.84
2023-05-05T22:45:42.602Z,96370.66
2023-05-05T22:48:15.298Z,96378.34
2023-05-05T22:50:48.118Z,96372.88
2023-05-05T22:53:20.904Z,96376.72
2023-05-05T22:55:55.063Z,96371.25
2023-05-05T22:58:28.332Z,96380.09
2023-05-05T23:01:01.111Z,96376.19
2023-05-05T23:03:34.082Z,96371.13
2023-05-05T23:06:07.474Z,96378.03
2023-05-05T23:08:41.752Z,96368.72
2023-05-05T23:11:16.249Z,96362.56
2023-05-05T23:13:48.958Z,96370.22
2023-05-05T23:16:21.777Z,96374.03
2023-05-05T23:18:56.078Z,96369.44
2023-05-05T23:21:29.365Z,96367.09
2023-05-05T23:24:05.061Z,96369.00
2023-05-05T23:26:39.357Z,96367.47
2023-05-05T23:29:12.751Z,96372.09
2023-05-05T23:31:46.149Z,96360.53
2023-05-05T23:34:18.888Z,96369.38
2023-05-05T23:36:51.867Z,96360.09
2023-05-05T23:39:24.697Z,96363.22
2023-05-05T23:41:58.960Z,96363.91
2023-05-05T23:44:31.591Z,96353.16
2023-05-05T23:47:04.592Z,96360.88
2023-05-05T23:49:37.324Z,96362.00
2023-05-05T23:52:10.230Z,96360.88
2023-05-05T23:54:42.936Z,96359.31
2023-05-05T23:57:17.432Z,96352.78
2023-05-05T23:59:50.547Z,96348.53
